sensor_id;sensor_type;location;lat;lon;timestamp;temperature;humidity
30069;DHT22;16894;49.456;10.644;2023-05-08T00:00:21;12.30;99.90
30069;DHT22;16894;49.456;10.644;2023-05-08T00:02:47;12.40;99.90
30069;DHT22;16894;49.456;10.644;2023-05-08T00:05:13;12.40;99.90
30069;DHT22;16894;49.456;10.644;2023-05-08T00:07:38;12.40;99.90
30069;DHT22;16894;49.456;10.644;2023-05-08T00:10:04;12.40;99.90
30069;DHT22;16894;49.456;10.644;2023-05-08T00:12:30;12.30;99.90
30069;DHT22;16894;49.456;10.644;2023-05-08T00:14:55;12.20;99.90
30069;DHT22;16894;49.456;10.644;2023-05-08T00:17:21;12.10;99.90
30069;DHT22;16894;49.456;10.644;2023-05-08T00:19:47;12.10;99.90
30069;DHT22;16894;49.456;10.644;2023-05-08T00:22:12;12.00;99.90
30069;DHT22;16894;49.456;10.644;2023-05-08T00:24:38;11.90;99.90
30069;DHT22;16894;49.456;10.644;2023-05-08T00:27:04;11.90;99.90
30069;DHT22;16894;49.456;10.644;2023-05-08T00:29:29;11.80;99.90
30069;DHT22;16894;49.456;10.644;2023-05-08T00:31:55;11.80;99.90
30069;DHT22;16894;49.456;10.644;2023-05-08T00:34:20;11.80;99.90
30069;DHT22;16894;49.456;10.644;2023-05-08T00:36:46;11.80;99.90
30069;DHT22;16894;49.456;10.644;2023-05-08T00:39:11;11.70;99.90
30069;DHT22;16894;49.456;10.644;2023-05-08T00:41:37;11.80;99.90
30069;DHT22;16894;49.456;10.644;2023-05-08T00:44:02;11.70;99.90
30069;DHT22;16894;49.456;10.644;2023-05-08T00:46:28;11.70;99.90
30069;DHT22;16894;49.456;10.644;2023-05-08T00:48:54;11.60;99.90
30069;DHT22;16894;49.456;10.644;2023-05-08T00:51:20;11.60;99.90
30069;DHT22;16894;49.456;10.644;2023-05-08T00:53:45;11.60;99.90
30069;DHT22;16894;49.456;10.644;2023-05-08T00:56:12;11.60;99.90
30069;DHT22;16894;49.456;10.644;2023-05-08T00:58:38;11.60;99.90
30069;DHT22;16894;49.456;10.644;2023-05-08T01:01:04;11.60;99.90
30069;DHT22;16894;49.456;10.644;2023-05-08T01:03:29;11.50;99.90
30069;DHT22;16894;49.456;10.644;2023-05-08T01:05:56;11.50;99.90
30069;DHT22;16894;49.456;10.644;2023-05-08T01:08:22;11.50;99.90
30069;DHT22;16894;49.456;10.644;2023-05-08T01:11:00;11.50;99.90
30069;DHT22;16894;49.456;10.644;2023-05-08T01:13:39;11.50;99.90
30069;DHT22;16894;49.456;10.644;2023-05-08T01:16:16;11.50;99.90
30069;DHT22;16894;49.456;10.644;2023-05-08T01:18:44;11.60;99.90
30069;DHT22;16894;49.456;10.644;2023-05-08T01:21:16;11.60;99.90
30069;DHT22;16894;49.456;10.644;2023-05-08T01:23:57;11.60;99.90
30069;DHT22;16894;49.456;10.644;2023-05-08T01:34:34;11.40;99.90
30069;DHT22;16894;49.456;10.644;2023-05-08T01:37:03;11.40;99.90
30069;DHT22;16894;49.456;10.644;2023-05-08T01:44:46;11.40;99.90
30069;DHT22;16894;49.456;10.644;2023-05-08T01:47:13;11.40;99.90
30069;DHT22;16894;49.456;10.644;2023-05-08T01:49:43;11.40;99.90
30069;DHT22;16894;49.456;10.644;2023-05-08T01:52:30;11.30;99.90
30069;DHT22;16894;49.456;10.644;2023-05-08T01:55:04;11.40;99.90
30069;DHT22;16894;49.456;10.644;2023-05-08T01:57:32;11.30;99.90
30069;DHT22;16894;49.456;10.644;2023-05-08T01:59:58;11.40;99.90
30069;DHT22;16894;49.456;10.644;2023-05-08T02:02:25;11.30;99.90
30069;DHT22;16894;49.456;10.644;2023-05-08T02:04:52;11.30;99.90
30069;DHT22;16894;49.456;10.644;2023-05-08T02:07:20;11.30;99.90
30069;DHT22;16894;49.456;10.644;2023-05-08T02:09:46;11.20;99.90
30069;DHT22;16894;49.456;10.644;2023-05-08T02:12:12;11.20;99.90
30069;DHT22;16894;49.456;10.644;2023-05-08T02:14:40;11.20;99.90
30069;DHT22;16894;49.456;10.644;2023-05-08T02:17:06;11.20;99.90
30069;DHT22;16894;49.456;10.644;2023-05-08T02:19:34;11.20;99.90
30069;DHT22;16894;49.456;10.644;2023-05-08T02:22:00;11.20;99.90
30069;DHT22;16894;49.456;10.644;2023-05-08T02:24:25;11.30;99.90
30069;DHT22;16894;49.456;10.644;2023-05-08T02:26:51;11.30;99.90
30069;DHT22;16894;49.456;10.644;2023-05-08T02:29:17;11.30;99.90
30069;DHT22;16894;49.456;10.644;2023-05-08T02:31:43;11.30;99.90
30069;DHT22;16894;49.456;10.644;2023-05-08T02:34:09;11.20;99.90
30069;DHT22;16894;49.456;10.644;2023-05-08T02:36:35;11.20;99.90
30069;DHT22;16894;49.456;10.644;2023-05-08T02:39:01;11.10;99.90
30069;DHT22;16894;49.456;10.644;2023-05-08T02:41:29;11.10;99.90
30069;DHT22;16894;49.456;10.644;2023-05-08T02:43:56;11.10;99.90
30069;DHT22;16894;49.456;10.644;2023-05-08T02:46:38;11.20;99.90
30069;DHT22;16894;49.456;10.644;2023-05-08T02:49:27;11.10;99.90
30069;DHT22;16894;49.456;10.644;2023-05-08T02:52:04;11.10;99.90
30069;DHT22;16894;49.456;10.644;2023-05-08T02:54:50;11.10;99.90
30069;DHT22;16894;49.456;10.644;2023-05-08T03:00:04;11.00;99.90
30069;DHT22;16894;49.456;10.644;2023-05-08T03:05:19;11.00;99.90
30069;DHT22;16894;49.456;10.644;2023-05-08T03:07:49;11.00;99.90
30069;DHT22;16894;49.456;10.644;2023-05-08T03:10:15;10.90;99.90
30069;DHT22;16894;49.456;10.644;2023-05-08T03:12:44;11.00;99.90
30069;DHT22;16894;49.456;10.644;2023-05-08T03:17:56;11.10;99.90
30069;DHT22;16894;49.456;10.644;2023-05-08T03:20:23;11.20;99.90
30069;DHT22;16894;49.456;10.644;2023-05-08T03:22:52;11.10;99.90
30069;DHT22;16894;49.456;10.644;2023-05-08T03:25:18;11.10;99.90
30069;DHT22;16894;49.456;10.644;2023-05-08T03:27:44;11.10;99.90
30069;DHT22;16894;49.456;10.644;2023-05-08T03:30:10;11.10;99.90
30069;DHT22;16894;49.456;10.644;2023-05-08T03:32:36;11.00;99.90
30069;DHT22;16894;49.456;10.644;2023-05-08T03:35:03;10.90;99.90
30069;DHT22;16894;49.456;10.644;2023-05-08T03:37:29;10.90;99.90
30069;DHT22;16894;49.456;10.644;2023-05-08T03:39:55;10.90;99.90
30069;DHT22;16894;49.456;10.644;2023-05-08T03:42:24;10.90;99.90
30069;DHT22;16894;49.456;10.644;2023-05-08T03:44:50;11.00;99.90
30069;DHT22;16894;49.456;10.644;2023-05-08T03:47:16;11.00;99.90
30069;DHT22;16894;49.456;10.644;2023-05-08T03:49:43;10.90;99.90
30069;DHT22;16894;49.456;10.644;2023-05-08T03:52:10;10.90;99.90
30069;DHT22;16894;49.456;10.644;2023-05-08T03:54:35;10.90;99.90
30069;DHT22;16894;49.456;10.644;2023-05-08T03:57:01;10.90;99.90
30069;DHT22;16894;49.456;10.644;2023-05-08T04:09:33;10.80;99.90
30069;DHT22;16894;49.456;10.644;2023-05-08T04:14:37;10.80;99.90
30069;DHT22;16894;49.456;10.644;2023-05-08T04:17:08;10.80;99.90
30069;DHT22;16894;49.456;10.644;2023-05-08T04:19:37;10.80;99.90
30069;DHT22;16894;49.456;10.644;2023-05-08T04:22:04;10.80;99.90
30069;DHT22;16894;49.456;10.644;2023-05-08T04:24:30;10.80;99.90
30069;DHT22;16894;49.456;10.644;2023-05-08T04:26:58;10.80;99.90
30069;DHT22;16894;49.456;10.644;2023-05-08T04:29:24;10.80;99.90
30069;DHT22;16894;49.456;10.644;2023-05-08T04:31:49;10.80;99.90
30069;DHT22;16894;49.456;10.644;2023-05-08T04:34:15;10.80;99.90
30069;DHT22;16894;49.456;10.644;2023-05-08T04:36:41;10.80;99.90
30069;DHT22;16894;49.456;10.644;2023-05-08T04:39:07;10.80;99.90
30069;DHT22;16894;49.456;10.644;2023-05-08T04:41:32;10.90;99.90
30069;DHT22;16894;49.456;10.644;2023-05-08T04:43:59;10.80;99.90
30069;DHT22;16894;49.456;10.644;2023-05-08T04:46:25;10.90;99.90
30069;DHT22;16894;49.456;10.644;2023-05-08T04:48:50;10.90;99.90
30069;DHT22;16894;49.456;10.644;2023-05-08T04:51:17;11.00;99.90
30069;DHT22;16894;49.456;10.644;2023-05-08T04:53:47;11.00;99.90
30069;DHT22;16894;49.456;10.644;2023-05-08T04:56:12;11.00;99.90
30069;DHT22;16894;49.456;10.644;2023-05-08T04:58:38;11.00;99.90
30069;DHT22;16894;49.456;10.644;2023-05-08T05:01:03;11.00;99.90
30069;DHT22;16894;49.456;10.644;2023-05-08T05:03:29;11.00;99.90
30069;DHT22;16894;49.456;10.644;2023-05-08T05:05:58;11.10;99.90
30069;DHT22;16894;49.456;10.644;2023-05-08T05:08:24;11.10;99.90
30069;DHT22;16894;49.456;10.644;2023-05-08T05:10:49;11.10;99.90
30069;DHT22;16894;49.456;10.644;2023-05-08T05:13:15;11.10;99.90
30069;DHT22;16894;49.456;10.644;2023-05-08T05:15:41;11.20;99.90
30069;DHT22;16894;49.456;10.644;2023-05-08T05:18:07;11.20;99.90
30069;DHT22;16894;49.456;10.644;2023-05-08T05:20:32;11.20;99.90
30069;DHT22;16894;49.456;10.644;2023-05-08T05:22:58;11.30;99.90
30069;DHT22;16894;49.456;10.644;2023-05-08T05:25:23;11.30;99.90
30069;DHT22;16894;49.456;10.644;2023-05-08T05:27:49;11.30;99.90
30069;DHT22;16894;49.456;10.644;2023-05-08T05:30:14;11.40;99.90
30069;DHT22;16894;49.456;10.644;2023-05-08T05:32:40;11.40;99.90
30069;DHT22;16894;49.456;10.644;2023-05-08T05:35:06;11.40;99.90
30069;DHT22;16894;49.456;10.644;2023-05-08T05:37:31;11.50;99.90
30069;DHT22;16894;49.456;10.644;2023-05-08T05:39:57;11.50;99.90
30069;DHT22;16894;49.456;10.644;2023-05-08T05:42:22;11.50;99.90
30069;DHT22;16894;49.456;10.644;2023-05-08T05:44:48;11.40;99.90
30069;DHT22;16894;49.456;10.644;2023-05-08T05:47:13;11.50;99.90
30069;DHT22;16894;49.456;10.644;2023-05-08T05:49:39;11.50;99.90
30069;DHT22;16894;49.456;10.644;2023-05-08T05:52:07;11.60;99.90
30069;DHT22;16894;49.456;10.644;2023-05-08T05:54:32;11.70;99.90
30069;DHT22;16894;49.456;10.644;2023-05-08T05:56:58;11.70;99.90
30069;DHT22;16894;49.456;10.644;2023-05-08T05:59:23;11.70;99.90
30069;DHT22;16894;49.456;10.644;2023-05-08T06:01:49;11.80;99.90
30069;DHT22;16894;49.456;10.644;2023-05-08T06:04:14;11.80;99.90
30069;DHT22;16894;49.456;10.644;2023-05-08T06:06:40;11.90;99.90
30069;DHT22;16894;49.456;10.644;2023-05-08T06:09:06;11.90;99.90
30069;DHT22;16894;49.456;10.644;2023-05-08T06:11:31;11.90;99.90
30069;DHT22;16894;49.456;10.644;2023-05-08T06:13:57;12.00;99.90
30069;DHT22;16894;49.456;10.644;2023-05-08T06:16:22;12.10;99.90
30069;DHT22;16894;49.456;10.644;2023-05-08T06:18:49;12.20;99.90
30069;DHT22;16894;49.456;10.644;2023-05-08T06:21:16;12.30;99.90
30069;DHT22;16894;49.456;10.644;2023-05-08T06:23:42;12.40;99.90
30069;DHT22;16894;49.456;10.644;2023-05-08T06:26:08;12.50;99.90
30069;DHT22;16894;49.456;10.644;2023-05-08T06:28:33;12.50;99.90
30069;DHT22;16894;49.456;10.644;2023-05-08T06:30:59;12.60;99.90
30069;DHT22;16894;49.456;10.644;2023-05-08T06:33:24;12.70;99.90
30069;DHT22;16894;49.456;10.644;2023-05-08T06:35:50;12.80;99.90
30069;DHT22;16894;49.456;10.644;2023-05-08T06:38:15;12.80;99.90
30069;DHT22;16894;49.456;10.644;2023-05-08T06:40:44;12.80;99.90
30069;DHT22;16894;49.456;10.644;2023-05-08T06:43:10;12.90;99.90
30069;DHT22;16894;49.456;10.644;2023-05-08T06:45:36;12.80;99.90
30069;DHT22;16894;49.456;10.644;2023-05-08T06:48:01;12.80;99.90
30069;DHT22;16894;49.456;10.644;2023-05-08T06:50:27;12.80;99.90
30069;DHT22;16894;49.456;10.644;2023-05-08T06:52:52;12.80;99.90
30069;DHT22;16894;49.456;10.644;2023-05-08T06:55:18;12.90;99.90
30069;DHT22;16894;49.456;10.644;2023-05-08T06:57:44;12.90;99.90
30069;DHT22;16894;49.456;10.644;2023-05-08T07:00:09;12.90;99.90
30069;DHT22;16894;49.456;10.644;2023-05-08T07:02:35;12.80;99.90
30069;DHT22;16894;49.456;10.644;2023-05-08T07:05:01;13.10;99.90
30069;DHT22;16894;49.456;10.644;2023-05-08T07:07:27;13.40;99.90
30069;DHT22;16894;49.456;10.644;2023-05-08T07:09:52;13.40;99.90
30069;DHT22;16894;49.456;10.644;2023-05-08T07:12:18;13.40;99.90
30069;DHT22;16894;49.456;10.644;2023-05-08T07:14:44;13.60;99.90
30069;DHT22;16894;49.456;10.644;2023-05-08T07:17:09;13.60;99.90
30069;DHT22;16894;49.456;10.644;2023-05-08T07:19:35;13.60;99.90
30069;DHT22;16894;49.456;10.644;2023-05-08T07:22:00;13.60;99.90
30069;DHT22;16894;49.456;10.644;2023-05-08T07:24:26;13.60;99.90
30069;DHT22;16894;49.456;10.644;2023-05-08T07:26:51;13.70;99.90
30069;DHT22;16894;49.456;10.644;2023-05-08T07:29:17;13.80;99.90
30069;DHT22;16894;49.456;10.644;2023-05-08T07:31:44;14.00;99.90
30069;DHT22;16894;49.456;10.644;2023-05-08T07:34:11;14.30;99.90
30069;DHT22;16894;49.456;10.644;2023-05-08T07:36:36;14.30;99.90
30069;DHT22;16894;49.456;10.644;2023-05-08T07:39:02;14.30;99.90
30069;DHT22;16894;49.456;10.644;2023-05-08T07:41:28;14.50;99.90
30069;DHT22;16894;49.456;10.644;2023-05-08T07:43:54;14.60;99.90
30069;DHT22;16894;49.456;10.644;2023-05-08T07:46:19;14.50;99.90
30069;DHT22;16894;49.456;10.644;2023-05-08T07:48:45;14.70;99.90
30069;DHT22;16894;49.456;10.644;2023-05-08T07:51:11;14.80;99.90
30069;DHT22;16894;49.456;10.644;2023-05-08T07:53:37;14.80;99.90
30069;DHT22;16894;49.456;10.644;2023-05-08T07:56:02;15.00;99.90
30069;DHT22;16894;49.456;10.644;2023-05-08T07:58:28;14.90;99.90
30069;DHT22;16894;49.456;10.644;2023-05-08T08:00:53;14.90;99.90
30069;DHT22;16894;49.456;10.644;2023-05-08T08:03:19;14.80;99.90
30069;DHT22;16894;49.456;10.644;2023-05-08T08:05:44;14.70;99.90
30069;DHT22;16894;49.456;10.644;2023-05-08T08:08:10;14.60;99.90
30069;DHT22;16894;49.456;10.644;2023-05-08T08:10:36;14.60;99.90
30069;DHT22;16894;49.456;10.644;2023-05-08T08:13:01;14.60;99.90
30069;DHT22;16894;49.456;10.644;2023-05-08T08:15:27;14.70;99.90
30069;DHT22;16894;49.456;10.644;2023-05-08T08:17:55;14.60;99.90
30069;DHT22;16894;49.456;10.644;2023-05-08T08:20:21;14.50;99.90
30069;DHT22;16894;49.456;10.644;2023-05-08T08:22:47;14.50;99.90
30069;DHT22;16894;49.456;10.644;2023-05-08T08:25:12;14.40;99.90
30069;DHT22;16894;49.456;10.644;2023-05-08T08:27:38;14.60;99.90
30069;DHT22;16894;49.456;10.644;2023-05-08T08:30:05;14.60;99.90
30069;DHT22;16894;49.456;10.644;2023-05-08T08:32:30;14.60;99.90
30069;DHT22;16894;49.456;10.644;2023-05-08T08:34:56;14.70;99.90
30069;DHT22;16894;49.456;10.644;2023-05-08T08:37:22;14.90;99.90
30069;DHT22;16894;49.456;10.644;2023-05-08T08:39:48;15.10;99.90
30069;DHT22;16894;49.456;10.644;2023-05-08T08:42:14;15.40;99.90
30069;DHT22;16894;49.456;10.644;2023-05-08T08:44:39;15.50;99.90
30069;DHT22;16894;49.456;10.644;2023-05-08T08:47:06;15.60;99.90
30069;DHT22;16894;49.456;10.644;2023-05-08T08:49:35;15.70;99.90
30069;DHT22;16894;49.456;10.644;2023-05-08T08:52:01;15.80;99.90
30069;DHT22;16894;49.456;10.644;2023-05-08T08:54:28;15.70;99.90
30069;DHT22;16894;49.456;10.644;2023-05-08T08:56:59;15.90;99.90
30069;DHT22;16894;49.456;10.644;2023-05-08T08:59:26;16.20;99.90
30069;DHT22;16894;49.456;10.644;2023-05-08T09:01:52;16.20;99.90
30069;DHT22;16894;49.456;10.644;2023-05-08T09:04:19;16.30;99.90
30069;DHT22;16894;49.456;10.644;2023-05-08T09:06:45;16.60;99.90
30069;DHT22;16894;49.456;10.644;2023-05-08T09:09:11;16.80;99.90
30069;DHT22;16894;49.456;10.644;2023-05-08T09:11:36;16.80;99.90
30069;DHT22;16894;49.456;10.644;2023-05-08T09:14:02;17.00;99.90
30069;DHT22;16894;49.456;10.644;2023-05-08T09:16:28;17.20;99.90
30069;DHT22;16894;49.456;10.644;2023-05-08T09:18:54;17.00;99.90
30069;DHT22;16894;49.456;10.644;2023-05-08T09:21:19;17.10;99.90
30069;DHT22;16894;49.456;10.644;2023-05-08T09:26:37;17.50;99.90
30069;DHT22;16894;49.456;10.644;2023-05-08T09:29:19;17.40;99.90
30069;DHT22;16894;49.456;10.644;2023-05-08T09:31:50;17.50;99.90
30069;DHT22;16894;49.456;10.644;2023-05-08T09:36:51;17.70;99.90
30069;DHT22;16894;49.456;10.644;2023-05-08T09:39:23;17.60;99.90
30069;DHT22;16894;49.456;10.644;2023-05-08T09:41:58;17.50;99.90
30069;DHT22;16894;49.456;10.644;2023-05-08T09:44:24;17.60;99.90
30069;DHT22;16894;49.456;10.644;2023-05-08T09:46:49;17.90;99.90
30069;DHT22;16894;49.456;10.644;2023-05-08T09:49:15;17.80;99.90
30069;DHT22;16894;49.456;10.644;2023-05-08T09:51:41;17.80;99.90
30069;DHT22;16894;49.456;10.644;2023-05-08T09:54:18;17.80;99.90
30069;DHT22;16894;49.456;10.644;2023-05-08T09:56:44;18.00;99.90
30069;DHT22;16894;49.456;10.644;2023-05-08T09:59:25;18.00;99.90
30069;DHT22;16894;49.456;10.644;2023-05-08T10:01:51;18.00;99.90
30069;DHT22;16894;49.456;10.644;2023-05-08T10:04:17;17.70;99.90
30069;DHT22;16894;49.456;10.644;2023-05-08T10:06:43;17.60;99.90
30069;DHT22;16894;49.456;10.644;2023-05-08T10:09:09;17.40;99.90
30069;DHT22;16894;49.456;10.644;2023-05-08T10:11:35;17.40;99.90
30069;DHT22;16894;49.456;10.644;2023-05-08T10:14:00;17.40;99.90
30069;DHT22;16894;49.456;10.644;2023-05-08T10:16:27;17.60;99.90
30069;DHT22;16894;49.456;10.644;2023-05-08T10:18:57;17.40;99.90
30069;DHT22;16894;49.456;10.644;2023-05-08T10:21:24;17.50;99.90
30069;DHT22;16894;49.456;10.644;2023-05-08T10:23:52;17.70;99.90
30069;DHT22;16894;49.456;10.644;2023-05-08T10:26:24;17.80;99.90
30069;DHT22;16894;49.456;10.644;2023-05-08T10:28:55;17.90;99.90
30069;DHT22;16894;49.456;10.644;2023-05-08T10:31:25;17.90;99.90
30069;DHT22;16894;49.456;10.644;2023-05-08T10:33:55;18.00;99.90
30069;DHT22;16894;49.456;10.644;2023-05-08T10:36:22;17.90;99.90
30069;DHT22;16894;49.456;10.644;2023-05-08T10:38:48;17.90;99.90
30069;DHT22;16894;49.456;10.644;2023-05-08T10:41:14;18.10;99.90
30069;DHT22;16894;49.456;10.644;2023-05-08T10:43:40;18.20;99.90
30069;DHT22;16894;49.456;10.644;2023-05-08T10:46:28;18.20;99.90
30069;DHT22;16894;49.456;10.644;2023-05-08T10:51:41;18.20;99.90
30069;DHT22;16894;49.456;10.644;2023-05-08T10:54:12;18.30;99.90
30069;DHT22;16894;49.456;10.644;2023-05-08T10:56:39;18.10;99.90
30069;DHT22;16894;49.456;10.644;2023-05-08T10:59:04;18.00;99.90
30069;DHT22;16894;49.456;10.644;2023-05-08T11:01:30;18.10;99.90
30069;DHT22;16894;49.456;10.644;2023-05-08T11:03:56;18.10;99.90
30069;DHT22;16894;49.456;10.644;2023-05-08T11:09:06;18.40;99.90
30069;DHT22;16894;49.456;10.644;2023-05-08T11:35:39;17.80;99.90
30069;DHT22;16894;49.456;10.644;2023-05-08T11:38:14;17.70;99.90
30069;DHT22;16894;49.456;10.644;2023-05-08T11:40:46;17.50;99.90
30069;DHT22;16894;49.456;10.644;2023-05-08T11:45:58;17.50;99.90
30069;DHT22;16894;49.456;10.644;2023-05-08T11:48:24;17.50;99.90
30069;DHT22;16894;49.456;10.644;2023-05-08T11:50:49;17.50;99.90
30069;DHT22;16894;49.456;10.644;2023-05-08T11:53:15;17.40;99.90
30069;DHT22;16894;49.456;10.644;2023-05-08T11:55:41;17.50;99.90
30069;DHT22;16894;49.456;10.644;2023-05-08T11:58:25;17.60;99.90
30069;DHT22;16894;49.456;10.644;2023-05-08T12:00:50;17.60;99.90
30069;DHT22;16894;49.456;10.644;2023-05-08T12:03:20;17.70;99.90
30069;DHT22;16894;49.456;10.644;2023-05-08T12:05:46;17.90;99.90
30069;DHT22;16894;49.456;10.644;2023-05-08T12:08:12;18.30;99.90
30069;DHT22;16894;49.456;10.644;2023-05-08T12:10:47;18.70;99.90
30069;DHT22;16894;49.456;10.644;2023-05-08T12:13:17;18.90;99.90
30069;DHT22;16894;49.456;10.644;2023-05-08T12:15:50;18.70;99.90
30069;DHT22;16894;49.456;10.644;2023-05-08T12:18:17;18.70;99.90
30069;DHT22;16894;49.456;10.644;2023-05-08T12:20:43;18.80;99.90
30069;DHT22;16894;49.456;10.644;2023-05-08T12:23:08;18.70;99.90
30069;DHT22;16894;49.456;10.644;2023-05-08T12:25:37;18.60;99.90
30069;DHT22;16894;49.456;10.644;2023-05-08T12:28:06;18.60;99.90
30069;DHT22;16894;49.456;10.644;2023-05-08T12:30:32;18.70;99.90
30069;DHT22;16894;49.456;10.644;2023-05-08T12:32:57;18.70;99.90
30069;DHT22;16894;49.456;10.644;2023-05-08T12:35:23;18.70;99.90
30069;DHT22;16894;49.456;10.644;2023-05-08T12:37:49;18.70;99.90
30069;DHT22;16894;49.456;10.644;2023-05-08T12:40:26;18.60;99.90
30069;DHT22;16894;49.456;10.644;2023-05-08T12:42:52;18.60;99.90
30069;DHT22;16894;49.456;10.644;2023-05-08T12:47:47;18.90;99.90
30069;DHT22;16894;49.456;10.644;2023-05-08T12:50:14;18.90;99.90
30069;DHT22;16894;49.456;10.644;2023-05-08T12:52:39;18.90;99.90
30069;DHT22;16894;49.456;10.644;2023-05-08T12:55:05;19.00;99.90
30069;DHT22;16894;49.456;10.644;2023-05-08T12:57:43;19.00;99.90
30069;DHT22;16894;49.456;10.644;2023-05-08T13:00:09;19.20;99.90
30069;DHT22;16894;49.456;10.644;2023-05-08T13:02:35;19.40;99.90
30069;DHT22;16894;49.456;10.644;2023-05-08T13:05:00;19.40;99.90
30069;DHT22;16894;49.456;10.644;2023-05-08T13:07:31;19.60;99.90
30069;DHT22;16894;49.456;10.644;2023-05-08T13:10:00;19.90;99.90
30069;DHT22;16894;49.456;10.644;2023-05-08T13:12:29;20.00;99.90
30069;DHT22;16894;49.456;10.644;2023-05-08T13:14:54;19.90;99.90
30069;DHT22;16894;49.456;10.644;2023-05-08T13:17:20;19.80;99.90
30069;DHT22;16894;49.456;10.644;2023-05-08T13:19:45;19.50;99.90
30069;DHT22;16894;49.456;10.644;2023-05-08T13:22:11;19.70;99.90
30069;DHT22;16894;49.456;10.644;2023-05-08T13:24:36;19.80;99.90
30069;DHT22;16894;49.456;10.644;2023-05-08T13:27:02;19.90;99.90
30069;DHT22;16894;49.456;10.644;2023-05-08T13:29:28;19.60;99.90
30069;DHT22;16894;49.456;10.644;2023-05-08T13:31:53;19.90;99.60
30069;DHT22;16894;49.456;10.644;2023-05-08T13:34:19;20.30;99.90
30069;DHT22;16894;49.456;10.644;2023-05-08T13:36:45;20.50;99.90
30069;DHT22;16894;49.456;10.644;2023-05-08T13:39:10;20.70;99.70
30069;DHT22;16894;49.456;10.644;2023-05-08T13:41:36;20.90;99.10
30069;DHT22;16894;49.456;10.644;2023-05-08T13:44:01;20.60;99.60
30069;DHT22;16894;49.456;10.644;2023-05-08T13:46:27;20.60;98.90
30069;DHT22;16894;49.456;10.644;2023-05-08T13:48:52;20.60;99.90
30069;DHT22;16894;49.456;10.644;2023-05-08T13:51:18;21.00;98.80
30069;DHT22;16894;49.456;10.644;2023-05-08T13:53:43;21.60;98.40
30069;DHT22;16894;49.456;10.644;2023-05-08T13:56:09;21.60;97.40
30069;DHT22;16894;49.456;10.644;2023-05-08T13:58:34;21.60;97.50
30069;DHT22;16894;49.456;10.644;2023-05-08T14:01:00;21.40;98.00
30069;DHT22;16894;49.456;10.644;2023-05-08T14:03:25;21.60;97.50
30069;DHT22;16894;49.456;10.644;2023-05-08T14:05:51;21.20;97.10
30069;DHT22;16894;49.456;10.644;2023-05-08T14:08:16;21.00;98.00
30069;DHT22;16894;49.456;10.644;2023-05-08T14:10:42;20.50;97.80
30069;DHT22;16894;49.456;10.644;2023-05-08T14:13:08;20.10;98.80
30069;DHT22;16894;49.456;10.644;2023-05-08T14:15:34;19.90;99.60
30069;DHT22;16894;49.456;10.644;2023-05-08T14:18:01;19.70;99.30
30069;DHT22;16894;49.456;10.644;2023-05-08T14:20:26;19.60;99.60
30069;DHT22;16894;49.456;10.644;2023-05-08T14:22:52;19.70;99.20
30069;DHT22;16894;49.456;10.644;2023-05-08T14:25:17;19.70;99.40
30069;DHT22;16894;49.456;10.644;2023-05-08T14:27:43;19.70;99.90
30069;DHT22;16894;49.456;10.644;2023-05-08T14:30:09;19.60;99.90
30069;DHT22;16894;49.456;10.644;2023-05-08T14:32:35;19.50;99.90
30069;DHT22;16894;49.456;10.644;2023-05-08T14:35:00;19.30;99.90
30069;DHT22;16894;49.456;10.644;2023-05-08T14:37:26;19.30;99.90
30069;DHT22;16894;49.456;10.644;2023-05-08T14:39:51;19.20;99.90
30069;DHT22;16894;49.456;10.644;2023-05-08T14:42:18;19.10;99.90
30069;DHT22;16894;49.456;10.644;2023-05-08T14:44:44;18.90;99.90
30069;DHT22;16894;49.456;10.644;2023-05-08T14:47:09;18.80;99.90
30069;DHT22;16894;49.456;10.644;2023-05-08T14:49:35;18.80;99.90
30069;DHT22;16894;49.456;10.644;2023-05-08T14:52:00;18.70;99.90
30069;DHT22;16894;49.456;10.644;2023-05-08T14:54:26;18.80;99.90
30069;DHT22;16894;49.456;10.644;2023-05-08T14:56:52;18.60;99.90
30069;DHT22;16894;49.456;10.644;2023-05-08T14:59:17;18.30;99.90
30069;DHT22;16894;49.456;10.644;2023-05-08T15:01:43;18.20;99.90
30069;DHT22;16894;49.456;10.644;2023-05-08T15:04:09;18.10;99.90
30069;DHT22;16894;49.456;10.644;2023-05-08T15:06:34;18.10;99.90
30069;DHT22;16894;49.456;10.644;2023-05-08T15:09:00;18.10;99.90
30069;DHT22;16894;49.456;10.644;2023-05-08T15:11:26;18.10;99.90
30069;DHT22;16894;49.456;10.644;2023-05-08T15:13:51;18.00;99.90
30069;DHT22;16894;49.456;10.644;2023-05-08T15:16:17;18.10;99.90
30069;DHT22;16894;49.456;10.644;2023-05-08T15:18:43;18.10;99.90
30069;DHT22;16894;49.456;10.644;2023-05-08T15:21:08;17.90;99.90
30069;DHT22;16894;49.456;10.644;2023-05-08T15:23:34;17.80;99.90
30069;DHT22;16894;49.456;10.644;2023-05-08T15:26:00;17.70;99.90
30069;DHT22;16894;49.456;10.644;2023-05-08T15:28:26;17.70;99.90
30069;DHT22;16894;49.456;10.644;2023-05-08T15:30:51;17.70;99.90
30069;DHT22;16894;49.456;10.644;2023-05-08T15:33:17;17.60;99.90
30069;DHT22;16894;49.456;10.644;2023-05-08T15:35:42;17.50;99.90
30069;DHT22;16894;49.456;10.644;2023-05-08T15:38:08;17.60;99.90
30069;DHT22;16894;49.456;10.644;2023-05-08T15:40:37;17.60;99.90
30069;DHT22;16894;49.456;10.644;2023-05-08T15:43:02;17.60;99.90
30069;DHT22;16894;49.456;10.644;2023-05-08T15:45:28;17.50;99.90
30069;DHT22;16894;49.456;10.644;2023-05-08T15:47:53;17.50;99.90
30069;DHT22;16894;49.456;10.644;2023-05-08T15:50:19;17.40;99.90
30069;DHT22;16894;49.456;10.644;2023-05-08T15:52:46;17.30;99.90
30069;DHT22;16894;49.456;10.644;2023-05-08T15:55:12;17.30;99.90
30069;DHT22;16894;49.456;10.644;2023-05-08T15:57:37;17.40;99.90
30069;DHT22;16894;49.456;10.644;2023-05-08T16:00:03;17.40;99.90
30069;DHT22;16894;49.456;10.644;2023-05-08T16:02:28;17.50;99.90
30069;DHT22;16894;49.456;10.644;2023-05-08T16:04:54;17.50;99.90
30069;DHT22;16894;49.456;10.644;2023-05-08T16:07:20;17.60;99.90
30069;DHT22;16894;49.456;10.644;2023-05-08T16:09:45;17.50;99.90
30069;DHT22;16894;49.456;10.644;2023-05-08T16:12:11;17.60;99.90
30069;DHT22;16894;49.456;10.644;2023-05-08T16:14:36;17.70;99.90
30069;DHT22;16894;49.456;10.644;2023-05-08T16:17:02;17.70;99.90
30069;DHT22;16894;49.456;10.644;2023-05-08T16:19:28;17.70;99.90
30069;DHT22;16894;49.456;10.644;2023-05-08T16:21:53;17.60;99.90
30069;DHT22;16894;49.456;10.644;2023-05-08T16:24:19;17.60;99.90
30069;DHT22;16894;49.456;10.644;2023-05-08T16:26:45;17.50;99.90